Time;durP1;ratioP1;P1;durP2;ratioP2;P2;SDS_P1;SDS_P2;PMS_P1;PMS_P2;Temp;Humidity;BMP_temperature;BMP_pressure;BME280_temperature;BME280_humidity;BME280_pressure;Samples;Min_cycle;Max_cycle;Signal;HPM_P1;HPM_P2
2023/11/17 00:02:09;;;;;;;;;;;;;;;25.42;41.53;93723.81;4942111;28;7273;-61
2023/11/17 00:04:36;;;;;;;;;;;;;;;25.43;40.89;93730.78;4981473;28;7053;-61
2023/11/17 00:07:12;;;;;;;;;;;;;;;25.39;40.92;93735.84;5041453;28;9120;-61
2023/11/17 00:09:55;;;;;;;;;;;;;;;25.38;41.79;93740.59;5052131;28;8704;-61
2023/11/17 00:12:38;;;;;;;;;;;;;;;25.40;40.76;93745.59;5048216;28;7002;-61
2023/11/17 00:15:06;;;;;;;;;;;;;;;25.35;40.76;93747.16;5035270;28;6999;-61
2023/11/17 00:17:33;;;;;;;;;;;;;;;25.33;41.67;93754.44;5036578;28;7189;-61
2023/11/17 00:20:31;;;;;;;;;;;;;;;25.37;40.71;93774.16;5024533;28;9406;-61
2023/11/17 00:23:16;;;;;;;;;;;;;;;25.39;40.80;93779.88;5005543;28;7082;-67
2023/11/17 00:26:08;;;;;;;;;;;;;;;25.37;40.69;93794.19;5034702;28;7129;-67
2023/11/17 00:28:48;;;;;;;;;;;;;;;25.39;40.88;93796.41;5036742;28;8744;-67
2023/11/17 00:31:21;;;;;;;;;;;;;;;25.39;41.68;93797.16;5036125;28;9528;-67
2023/11/17 00:34:21;;;;;;;;;;;;;;;25.40;41.61;93800.66;5035694;28;9219;-67
2023/11/17 00:37:00;;;;;;;;;;;;;;;25.41;40.89;93813.13;4993104;28;7074;-67
2023/11/17 00:39:37;;;;;;;;;;;;;;;25.37;40.83;93823.72;4968267;28;6992;-67
2023/11/17 00:42:08;;;;;;;;;;;;;;;25.36;41.47;93842.22;4989202;28;6977;-67
2023/11/17 00:44:35;;;;;;;;;;;;;;;25.37;40.68;93854.00;4986377;28;7100;-67
2023/11/17 00:47:04;;;;;;;;;;;;;;;25.38;41.56;93863.75;4990504;28;7329;-67
2023/11/17 00:49:33;;;;;;;;;;;;;;;25.39;41.37;93876.22;4991775;28;7230;-67
2023/11/17 00:52:10;;;;;;;;;;;;;;;25.39;40.79;93884.50;4986156;28;7411;-67
2023/11/17 00:54:42;;;;;;;;;;;;;;;25.39;41.09;93895.50;4998358;28;7424;-67
2023/11/17 00:57:17;;;;;;;;;;;;;;;25.38;40.79;93888.53;4991850;28;9178;-67
2023/11/17 00:59:53;;;;;;;;;;;;;;;25.37;41.69;93904.28;4991899;28;7271;-67
2023/11/17 01:02:29;;;;;;;;;;;;;;;25.40;40.96;93908.03;4993585;28;7686;-67
2023/11/17 01:04:55;;;;;;;;;;;;;;;25.37;41.72;93920.06;4984898;28;7228;-67
2023/11/17 01:07:40;;;;;;;;;;;;;;;25.36;41.84;93921.31;4988805;28;6980;-67
2023/11/17 01:10:09;;;;;;;;;;;;;;;25.37;40.88;93947.59;4991943;28;8649;-67
2023/11/17 01:12:35;;;;;;;;;;;;;;;25.36;40.79;93940.59;5007486;28;9357;-67
2023/11/17 01:15:04;;;;;;;;;;;;;;;25.36;40.82;93951.59;5052364;28;7161;-67
2023/11/17 01:18:07;;;;;;;;;;;;;;;25.34;41.84;93962.38;5049533;28;7693;-67
2023/11/17 01:20:45;;;;;;;;;;;;;;;25.37;40.76;93958.59;4999143;28;7235;-67
2023/11/17 01:23:13;;;;;;;;;;;;;;;25.38;41.28;93977.34;5027655;28;7187;-66
2023/11/17 01:25:40;;;;;;;;;;;;;;;25.35;40.78;93974.91;5013857;28;7275;-67
2023/11/17 01:28:37;;;;;;;;;;;;;;;25.31;41.86;93988.22;5032169;28;7084;-67
2023/11/17 01:31:25;;;;;;;;;;;;;;;25.30;41.87;93992.22;5021729;28;7154;-67
2023/11/17 01:34:04;;;;;;;;;;;;;;;25.25;41.09;93999.28;5033019;28;8200;-61
2023/11/17 01:36:33;;;;;;;;;;;;;;;25.27;41.31;94012.53;5015111;28;7073;-61
2023/11/17 01:39:01;;;;;;;;;;;;;;;25.26;41.17;94025.53;5011446;28;7009;-61
2023/11/17 01:41:37;;;;;;;;;;;;;;;25.28;41.20;94036.03;5029712;28;7101;-61
2023/11/17 01:44:16;;;;;;;;;;;;;;;25.29;41.37;94043.03;5009692;28;8821;-61
2023/11/17 01:47:02;;;;;;;;;;;;;;;25.33;41.71;94055.25;5012104;28;7398;-61
2023/11/17 01:49:38;;;;;;;;;;;;;;;25.32;41.17;94055.75;5014459;28;8813;-61
2023/11/17 01:52:04;;;;;;;;;;;;;;;25.37;41.18;94068.72;5011752;28;7265;-61
2023/11/17 01:54:51;;;;;;;;;;;;;;;25.32;41.25;94088.78;5029954;28;9216;-61
2023/11/17 01:57:17;;;;;;;;;;;;;;;25.34;41.75;94084.25;5045354;28;8787;-61
2023/11/17 01:59:44;;;;;;;;;;;;;;;25.31;41.01;94099.06;5026149;28;6953;-61
2023/11/17 02:02:09;;;;;;;;;;;;;;;25.27;41.65;94095.13;5029811;28;8848;-61
2023/11/17 02:04:36;;;;;;;;;;;;;;;25.26;41.16;94102.63;5025507;28;7347;-61
2023/11/17 02:07:02;;;;;;;;;;;;;;;25.26;41.66;94101.88;5037251;28;8785;-61
2023/11/17 02:09:50;;;;;;;;;;;;;;;25.23;42.00;94113.91;5050124;28;7619;-61
2023/11/17 02:12:46;;;;;;;;;;;;;;;25.25;41.58;94111.41;5023733;28;8982;-61
2023/11/17 02:15:39;;;;;;;;;;;;;;;25.26;41.46;94112.88;5084826;27;7004;-59
2023/11/17 02:18:10;;;;;;;;;;;;;;;25.26;41.66;94118.38;5066311;28;7172;-59
2023/11/17 02:20:37;;;;;;;;;;;;;;;25.26;41.06;94123.88;5061179;28;7143;-59
2023/11/17 02:23:30;;;;;;;;;;;;;;;25.33;41.67;94131.59;5053383;28;7284;-59
2023/11/17 02:29:44;;;;;;;;;;;;;;;25.31;41.60;94136.88;5067959;28;7222;-59
2023/11/17 02:32:29;;;;;;;;;;;;;;;25.29;42.03;94137.34;5082718;28;7185;-59
2023/11/17 02:34:58;;;;;;;;;;;;;;;25.26;41.85;94141.16;5093354;28;7089;-59
2023/11/17 02:37:50;;;;;;;;;;;;;;;25.17;42.05;94143.47;5060939;28;7094;-59
2023/11/17 02:40:31;;;;;;;;;;;;;;;25.23;41.09;94147.69;5059041;28;7301;-59
2023/11/17 02:43:21;;;;;;;;;;;;;;;25.19;41.51;94149.22;5060542;28;9219;-53
2023/11/17 02:46:00;;;;;;;;;;;;;;;25.23;41.72;94152.44;5058611;28;8735;-53
2023/11/17 02:48:36;;;;;;;;;;;;;;;25.24;41.57;94156.69;5065820;28;7354;-53
2023/11/17 02:51:37;;;;;;;;;;;;;;;25.23;41.16;94169.69;5058495;28;7299;-53
2023/11/17 02:54:08;;;;;;;;;;;;;;;25.23;41.57;94168.94;5034478;28;8792;-53
2023/11/17 02:56:51;;;;;;;;;;;;;;;25.18;41.29;94169.75;5040212;28;6997;-52
2023/11/17 02:59:27;;;;;;;;;;;;;;;25.25;41.66;94175.44;5048010;28;7157;-52
2023/11/17 03:01:56;;;;;;;;;;;;;;;25.23;41.89;94177.97;5033850;28;7255;-53
2023/11/17 03:04:37;;;;;;;;;;;;;;;25.21;41.93;94180.47;5070893;28;6999;-53
2023/11/17 03:07:20;;;;;;;;;;;;;;;25.23;41.34;94182.72;5052189;28;7339;-53
2023/11/17 03:09:51;;;;;;;;;;;;;;;25.23;42.00;94179.97;5045610;28;9053;-53
2023/11/17 03:12:18;;;;;;;;;;;;;;;25.23;41.74;94196.47;5055360;28;7054;-53
2023/11/17 03:15:11;;;;;;;;;;;;;;;25.22;41.31;94193.00;5050832;28;7261;-53
2023/11/17 03:18:26;;;;;;;;;;;;;;;25.24;42.11;94186.97;4987611;28;7694;-52
2023/11/17 03:21:01;;;;;;;;;;;;;;;25.15;41.99;94185.28;4884942;29;7240;-53
2023/11/17 03:23:55;;;;;;;;;;;;;;;25.18;42.18;94200.78;4889118;29;7848;-53
2023/11/17 03:26:21;;;;;;;;;;;;;;;25.14;42.13;94200.28;4882010;29;8452;-53
2023/11/17 03:29:19;;;;;;;;;;;;;;;25.15;41.43;94201.06;4890695;29;7378;-53
2023/11/17 03:31:52;;;;;;;;;;;;;;;25.18;42.19;94192.53;4880982;29;8781;-53
2023/11/17 03:34:31;;;;;;;;;;;;;;;25.17;42.12;94199.28;4874657;29;8934;-53
2023/11/17 03:37:12;;;;;;;;;;;;;;;25.18;42.20;94205.53;4895602;29;9151;-53
2023/11/17 03:40:11;;;;;;;;;;;;;;;25.18;41.70;94211.03;4880012;29;8802;-53
2023/11/17 03:43:02;;;;;;;;;;;;;;;25.19;41.58;94216.03;4860508;29;7256;-53
2023/11/17 03:45:30;;;;;;;;;;;;;;;25.23;41.19;94213.75;4860497;29;7847;-53
2023/11/17 03:48:33;;;;;;;;;;;;;;;25.18;41.59;94228.31;4854447;29;8816;-52
2023/11/17 03:51:08;;;;;;;;;;;;;;;25.19;41.35;94229.03;4860534;29;8211;-53
2023/11/17 03:53:48;;;;;;;;;;;;;;;25.25;41.30;94238.03;4852128;29;7170;-58
2023/11/17 03:56:22;;;;;;;;;;;;;;;25.25;42.06;94241.50;4909007;29;7396;-58
2023/11/17 03:59:13;;;;;;;;;;;;;;;25.24;41.72;94242.78;4921963;29;7016;-58
2023/11/17 04:01:59;;;;;;;;;;;;;;;25.28;41.69;94242.50;4916701;29;7088;-58
2023/11/17 04:05:15;;;;;;;;;;;;;;;25.27;41.01;94241.00;4921501;29;7223;-58
2023/11/17 04:07:48;;;;;;;;;;;;;;;25.28;41.12;94236.97;4905097;29;8296;-58
2023/11/17 04:10:18;;;;;;;;;;;;;;;25.31;41.15;94244.22;4934846;29;8245;-58
2023/11/17 04:12:47;;;;;;;;;;;;;;;25.27;41.22;94244.47;4934031;28;7155;-58
2023/11/17 04:15:17;;;;;;;;;;;;;;;25.23;41.97;94251.53;4926235;29;7310;-57
2023/11/17 04:17:43;;;;;;;;;;;;;;;25.25;41.89;94254.53;4944407;28;7399;-57
2023/11/17 04:20:19;;;;;;;;;;;;;;;25.27;41.88;94246.50;4972910;28;8260;-58
2023/11/17 04:23:40;;;;;;;;;;;;;;;25.29;41.04;94241.97;4983599;28;7340;-57
2023/11/17 04:26:23;;;;;;;;;;;;;;;25.26;41.26;94253.25;4915545;29;7309;-57
2023/11/17 04:28:59;;;;;;;;;;;;;;;25.30;41.27;94248.22;4910603;29;9170;-57
2023/11/17 04:31:35;;;;;;;;;;;;;;;25.30;41.74;94251.72;4911999;29;7752;-57
2023/11/17 04:34:13;;;;;;;;;;;;;;;25.28;40.82;94254.25;4908973;29;8840;-58
2023/11/17 04:36:49;;;;;;;;;;;;;;;25.30;41.19;94250.97;4917527;29;7001;-58
2023/11/17 04:40:05;;;;;;;;;;;;;;;25.28;40.82;94259.75;4913893;29;7097;-58
2023/11/17 04:42:47;;;;;;;;;;;;;;;25.29;41.70;94249.50;4914523;29;7511;-57
2023/11/17 04:45:25;;;;;;;;;;;;;;;25.27;40.97;94258.25;4906833;29;7461;-57
2023/11/17 04:48:04;;;;;;;;;;;;;;;25.27;41.35;94263.75;4894995;29;7013;-57
2023/11/17 04:50:31;;;;;;;;;;;;;;;25.27;41.06;94254.78;4922665;29;7154;-58
2023/11/17 04:53:24;;;;;;;;;;;;;;;25.25;41.82;94266.28;4902168;29;7162;-58
2023/11/17 04:56:11;;;;;;;;;;;;;;;25.22;41.84;94266.56;4898138;29;7280;-57
2023/11/17 04:58:40;;;;;;;;;;;;;;;25.19;41.41;94267.56;4889259;29;9258;-58
2023/11/17 05:01:42;;;;;;;;;;;;;;;25.19;41.06;94267.56;4957659;28;8902;-58
2023/11/17 05:04:09;;;;;;;;;;;;;;;25.17;41.95;94275.59;4951303;28;7085;-62
2023/11/17 05:06:36;;;;;;;;;;;;;;;25.18;41.11;94277.09;4954607;28;7240;-62
2023/11/17 05:09:09;;;;;;;;;;;;;;;25.17;41.51;94275.59;4947044;28;7413;-62
2023/11/17 05:11:38;;;;;;;;;;;;;;;25.20;41.10;94277.34;4937171;28;7270;-62
2023/11/17 05:14:05;;;;;;;;;;;;;;;25.18;40.85;94272.34;4939879;28;7358;-61
2023/11/17 05:16:37;;;;;;;;;;;;;;;25.15;41.14;94278.88;4941331;28;7260;-62
2023/11/17 05:19:05;;;;;;;;;;;;;;;25.18;41.29;94283.38;4949071;28;7174;-62
2023/11/17 05:22:17;;;;;;;;;;;;;;;25.21;40.99;94284.31;4937630;28;7062;-61
2023/11/17 05:25:43;;;;;;;;;;;;;;;25.23;42.02;94290.81;4915524;29;8878;-61
2023/11/17 05:28:48;;;;;;;;;;;;;;;25.21;41.00;94276.81;4915056;29;7147;-61
2023/11/17 05:31:26;;;;;;;;;;;;;;;25.19;41.53;94278.56;4849044;29;6989;-61
2023/11/17 05:34:02;;;;;;;;;;;;;;;25.19;41.18;94278.56;4849427;29;7047;-61
2023/11/17 05:36:39;;;;;;;;;;;;;;;25.18;41.60;94285.34;4839899;29;7088;-61
2023/11/17 05:39:06;;;;;;;;;;;;;;;25.15;42.06;94280.88;4858043;29;9325;-62
2023/11/17 05:41:32;;;;;;;;;;;;;;;25.14;41.96;94282.13;4874250;29;7317;-61
2023/11/17 05:44:01;;;;;;;;;;;;;;;25.15;41.70;94278.88;4870485;29;9220;-61
2023/11/17 05:46:30;;;;;;;;;;;;;;;25.13;41.52;94272.38;4877393;29;7399;-61
2023/11/17 05:49:46;;;;;;;;;;;;;;;25.15;41.21;94291.88;4875373;29;9123;-61
2023/11/17 05:52:34;;;;;;;;;;;;;;;25.12;41.92;94290.88;4874224;29;9619;-61
2023/11/17 05:55:03;;;;;;;;;;;;;;;25.16;42.29;94298.88;4875151;29;7263;-61
2023/11/17 05:57:42;;;;;;;;;;;;;;;25.19;41.91;94308.84;4872736;29;8587;-61
2023/11/17 06:00:20;;;;;;;;;;;;;;;25.24;42.39;94313.59;4869694;29;6995;-61
2023/11/17 06:02:46;;;;;;;;;;;;;;;25.26;42.42;94316.56;4977289;28;8734;-61
2023/11/17 06:05:20;;;;;;;;;;;;;;;25.26;41.94;94309.06;5017513;28;9121;-61
2023/11/17 06:08:14;;;;;;;;;;;;;;;25.32;41.90;94317.28;5029140;28;7275;-61
2023/11/17 06:10:44;;;;;;;;;;;;;;;25.31;42.46;94324.81;5040640;28;7241;-61
2023/11/17 06:13:14;;;;;;;;;;;;;;;25.31;41.63;94324.06;5018347;28;8723;-54
2023/11/17 06:15:55;;;;;;;;;;;;;;;25.28;41.56;94322.31;5002544;28;7246;-53
2023/11/17 06:18:38;;;;;;;;;;;;;;;25.26;42.42;94324.84;5015880;28;6986;-53
2023/11/17 06:21:18;;;;;;;;;;;;;;;25.26;41.77;94338.59;5032266;28;9084;-53
2023/11/17 06:23:59;;;;;;;;;;;;;;;25.31;41.77;94335.06;5002122;28;9118;-53
2023/11/17 06:27:00;;;;;;;;;;;;;;;25.32;42.47;94336.56;5035580;28;7284;-53
2023/11/17 06:29:39;;;;;;;;;;;;;;;25.33;41.78;94338.06;5017109;28;9039;-53
2023/11/17 06:32:49;;;;;;;;;;;;;;;25.34;42.46;94340.28;5027159;28;9103;-53
2023/11/17 06:35:24;;;;;;;;;;;;;;;25.35;42.36;94352.06;5020503;28;7480;-52
2023/11/17 06:38:10;;;;;;;;;;;;;;;25.36;41.49;94346.03;5018622;28;7506;-53
2023/11/17 06:40:40;;;;;;;;;;;;;;;25.37;41.54;94347.53;5044312;28;7229;-54
2023/11/17 06:43:40;;;;;;;;;;;;;;;25.36;42.02;94337.03;5031384;28;8738;-54
2023/11/17 06:46:17;;;;;;;;;;;;;;;25.33;41.00;94347.06;4982676;28;9048;-53
2023/11/17 06:49:08;;;;;;;;;;;;;;;25.36;41.09;94359.06;4974131;28;8699;-54
2023/11/17 06:52:01;;;;;;;;;;;;;;;25.32;40.75;94356.56;4972469;28;7152;-54
2023/11/17 06:54:59;;;;;;;;;;;;;;;25.34;40.16;94361.56;4971922;28;6950;-54
2023/11/17 06:58:04;;;;;;;;;;;;;;;25.33;40.76;94365.59;4928990;29;7297;-53
2023/11/17 07:00:51;;;;;;;;;;;;;;;25.31;40.97;94377.13;4918654;28;7280;-53
2023/11/17 07:03:21;;;;;;;;;;;;;;;25.32;40.97;94375.84;4905546;29;9348;-53
2023/11/17 07:06:00;;;;;;;;;;;;;;;25.31;40.29;94368.09;4935382;29;9281;-53
2023/11/17 07:08:52;;;;;;;;;;;;;;;25.33;40.97;94385.63;4930908;28;8400;-53
2023/11/17 07:11:28;;;;;;;;;;;;;;;25.31;40.78;94379.88;4935781;29;8798;-53
2023/11/17 07:14:07;;;;;;;;;;;;;;;25.33;40.84;94379.34;4942054;28;7255;-53
2023/11/17 07:17:24;;;;;;;;;;;;;;;25.34;41.09;94395.34;4935655;28;7369;-54
2023/11/17 07:20:22;;;;;;;;;;;;;;;25.33;40.48;94398.63;4926854;29;8817;-53
2023/11/17 07:23:08;;;;;;;;;;;;;;;25.32;41.13;94399.88;4944415;28;9122;-59
2023/11/17 07:25:55;;;;;;;;;;;;;;;25.34;41.44;94400.13;4960955;28;7286;-59
2023/11/17 07:28:41;;;;;;;;;;;;;;;25.34;40.94;94406.38;4925155;28;7238;-59
2023/11/17 07:31:19;;;;;;;;;;;;;;;25.35;41.27;94404.38;4942218;28;7249;-59
2023/11/17 07:33:56;;;;;;;;;;;;;;;25.31;41.59;94412.16;4961338;28;7658;-59
2023/11/17 07:36:45;;;;;;;;;;;;;;;25.34;41.67;94422.88;4976606;28;7228;-59
2023/11/17 07:39:18;;;;;;;;;;;;;;;25.34;41.47;94420.13;4985064;28;7744;-59
2023/11/17 07:41:53;;;;;;;;;;;;;;;25.29;40.74;94431.91;4977078;28;7015;-58
2023/11/17 07:44:24;;;;;;;;;;;;;;;25.33;40.80;94434.41;4965718;28;7365;-58
2023/11/17 07:46:53;;;;;;;;;;;;;;;25.32;41.63;94435.66;4974276;28;9042;-59
2023/11/17 07:49:19;;;;;;;;;;;;;;;25.36;41.46;94438.91;4960708;28;7417;-59
2023/11/17 07:51:47;;;;;;;;;;;;;;;25.37;40.57;94437.66;4990860;28;6973;-59
2023/11/17 07:54:27;;;;;;;;;;;;;;;25.40;41.53;94436.66;4965796;28;9062;-59
2023/11/17 07:57:02;;;;;;;;;;;;;;;25.42;41.00;94436.91;5005361;28;7442;-59
2023/11/17 07:59:41;;;;;;;;;;;;;;;25.43;40.18;94436.41;5029407;28;8779;-59
2023/11/17 08:02:35;;;;;;;;;;;;;;;25.45;40.65;94438.63;5041133;28;9304;-59
2023/11/17 08:05:09;;;;;;;;;;;;;;;25.41;40.82;94438.13;5012010;28;7241;-59
2023/11/17 08:08:14;;;;;;;;;;;;;;;25.38;40.20;94430.91;5026863;28;7469;-59
2023/11/17 08:10:42;;;;;;;;;;;;;;;25.35;40.76;94440.91;5037625;28;7282;-59
2023/11/17 08:13:29;;;;;;;;;;;;;;;25.35;40.53;94434.66;5023164;28;6993;-59
2023/11/17 08:15:57;;;;;;;;;;;;;;;25.31;39.60;94442.44;5042146;28;7279;-59
2023/11/17 08:19:17;;;;;;;;;;;;;;;25.33;41.00;94442.69;5045780;28;7035;-59
2023/11/17 08:21:45;;;;;;;;;;;;;;;25.31;40.67;94447.94;5017878;28;7260;-59
2023/11/17 08:24:22;;;;;;;;;;;;;;;25.29;40.88;94447.72;5035570;28;7052;-59
2023/11/17 08:27:15;;;;;;;;;;;;;;;25.30;40.01;94444.44;5028161;28;7210;-59
2023/11/17 08:29:48;;;;;;;;;;;;;;;25.30;41.00;94449.19;5028572;28;8773;-60
2023/11/17 08:32:43;;;;;;;;;;;;;;;25.30;40.66;94451.94;5023719;28;8822;-54
2023/11/17 08:35:11;;;;;;;;;;;;;;;25.29;40.49;94451.19;5072623;28;9198;-53
2023/11/17 08:37:37;;;;;;;;;;;;;;;25.28;40.26;94457.97;5033362;28;9259;-54
2023/11/17 08:40:10;;;;;;;;;;;;;;;25.25;40.44;94452.72;5033357;28;8732;-53
2023/11/17 08:42:42;;;;;;;;;;;;;;;25.26;40.90;94454.97;5032063;28;7216;-54
2023/11/17 08:45:18;;;;;;;;;;;;;;;25.27;40.66;94455.72;5031293;28;7221;-53
2023/11/17 08:47:53;;;;;;;;;;;;;;;25.27;40.57;94455.72;5034363;28;7324;-53
2023/11/17 08:50:21;;;;;;;;;;;;;;;25.29;41.29;94453.22;5018768;28;7223;-54
2023/11/17 08:52:47;;;;;;;;;;;;;;;25.29;40.65;94455.97;5026258;28;6986;-53
2023/11/17 08:55:34;;;;;;;;;;;;;;;25.27;40.84;94470.22;5032208;28;7459;-54
2023/11/17 08:58:00;;;;;;;;;;;;;;;25.30;40.74;94471.22;5031242;28;7192;-54
2023/11/17 09:00:33;;;;;;;;;;;;;;;25.28;41.08;94484.75;5032217;28;7641;-54
2023/11/17 09:03:39;;;;;;;;;;;;;;;25.28;41.13;94482.75;5026865;28;7874;-54
2023/11/17 09:06:25;;;;;;;;;;;;;;;25.28;40.41;94479.22;5055496;28;9055;-54
2023/11/17 09:08:54;;;;;;;;;;;;;;;25.28;41.04;94477.22;5042990;28;7661;-54
2023/11/17 09:11:25;;;;;;;;;;;;;;;25.27;40.90;94488.75;5041750;28;9006;-53
2023/11/17 09:13:58;;;;;;;;;;;;;;;25.25;40.53;94489.25;5037263;28;7171;-54
2023/11/17 09:16:25;;;;;;;;;;;;;;;25.29;41.60;94486.25;5029833;28;7054;-53
2023/11/17 09:19:03;;;;;;;;;;;;;;;25.26;41.23;94490.75;5027731;28;9052;-54
2023/11/17 09:21:31;;;;;;;;;;;;;;;25.26;40.92;94498.25;5028690;28;8758;-54
2023/11/17 09:24:03;;;;;;;;;;;;;;;25.28;41.44;94504.00;5028288;28;7233;-53
2023/11/17 09:26:30;;;;;;;;;;;;;;;25.23;40.66;94500.03;5058820;28;8813;-54
2023/11/17 09:28:58;;;;;;;;;;;;;;;25.30;40.50;94510.50;5040492;28;7001;-53
2023/11/17 09:31:39;;;;;;;;;;;;;;;25.31;40.73;94508.50;5036123;28;6977;-53
2023/11/17 09:34:08;;;;;;;;;;;;;;;25.26;41.49;94506.53;5032648;28;7707;-53
2023/11/17 09:37:20;;;;;;;;;;;;;;;25.27;40.55;94503.25;5029768;28;8354;-53
2023/11/17 09:40:00;;;;;;;;;;;;;;;25.24;41.09;94498.03;5024213;28;7271;-53
2023/11/17 09:42:27;;;;;;;;;;;;;;;25.28;41.49;94513.03;5057155;28;7224;-55
2023/11/17 09:44:55;;;;;;;;;;;;;;;25.31;40.96;94520.28;5031969;28;8554;-55
2023/11/17 09:48:12;;;;;;;;;;;;;;;25.32;40.49;94523.75;5018578;28;8759;-57
2023/11/17 09:50:41;;;;;;;;;;;;;;;25.35;40.45;94528.28;5025104;28;7312;-57
2023/11/17 09:53:17;;;;;;;;;;;;;;;25.33;40.54;94525.28;5021412;28;7367;-57
2023/11/17 09:55:44;;;;;;;;;;;;;;;25.31;41.22;94522.28;5021309;28;9105;-57
2023/11/17 09:58:34;;;;;;;;;;;;;;;25.31;40.90;94519.53;5018444;28;9051;-57
2023/11/17 10:01:04;;;;;;;;;;;;;;;25.30;40.78;94520.78;5034684;28;7084;-57
2023/11/17 10:04:02;;;;;;;;;;;;;;;25.31;40.56;94525.78;5032820;28;7307;-57
2023/11/17 10:06:33;;;;;;;;;;;;;;;25.31;41.37;94519.53;4957897;28;7736;-57
2023/11/17 10:09:03;;;;;;;;;;;;;;;25.29;41.88;94519.28;4971678;28;7005;-57
2023/11/17 10:11:30;;;;;;;;;;;;;;;25.28;41.83;94517.78;4982965;28;7056;-57
2023/11/17 10:14:32;;;;;;;;;;;;;;;25.30;40.77;94523.53;4958991;28;7818;-57
2023/11/17 10:17:34;;;;;;;;;;;;;;;25.31;41.52;94522.28;4930463;29;8784;-57
2023/11/17 10:20:17;;;;;;;;;;;;;;;25.31;40.79;94528.53;4906299;29;7200;-57
2023/11/17 10:22:56;;;;;;;;;;;;;;;25.33;40.94;94517.78;4909701;29;7071;-57
2023/11/17 10:25:43;;;;;;;;;;;;;;;25.31;41.54;94528.53;4899477;29;7092;-57
2023/11/17 10:28:36;;;;;;;;;;;;;;;25.32;41.42;94523.75;4913524;29;9099;-57
2023/11/17 10:31:21;;;;;;;;;;;;;;;25.28;41.86;94534.28;4913128;29;7202;-57
2023/11/17 10:34:12;;;;;;;;;;;;;;;25.23;42.94;94530.31;4908077;29;9146;-57
2023/11/17 10:37:28;;;;;;;;;;;;;;;25.22;42.69;94522.56;4909996;29;7225;-57
2023/11/17 10:40:10;;;;;;;;;;;;;;;25.20;43.15;94527.81;4900747;29;7323;-57
2023/11/17 10:42:37;;;;;;;;;;;;;;;25.16;42.61;94528.09;4919040;28;7412;-57
2023/11/17 10:45:32;;;;;;;;;;;;;;;25.18;42.17;94530.31;4975704;28;7294;-57
2023/11/17 10:48:00;;;;;;;;;;;;;;;25.21;42.65;94529.31;4951073;28;7141;-56
2023/11/17 10:50:28;;;;;;;;;;;;;;;25.19;43.17;94531.81;4957395;28;7037;-57
2023/11/17 10:53:20;;;;;;;;;;;;;;;25.18;43.68;94535.84;4970431;28;7406;-59
2023/11/17 10:55:56;;;;;;;;;;;;;;;25.16;43.93;94532.84;5025005;28;7211;-60
2023/11/17 10:58:54;;;;;;;;;;;;;;;25.16;43.20;94536.34;5033859;28;7142;-59
2023/11/17 11:01:45;;;;;;;;;;;;;;;25.22;43.21;94525.31;4978470;28;6954;-59
2023/11/17 11:04:29;;;;;;;;;;;;;;;25.23;43.44;94526.78;4962615;28;9092;-59
2023/11/17 11:07:08;;;;;;;;;;;;;;;25.25;43.24;94524.31;4970602;28;7223;-58
2023/11/17 11:09:45;;;;;;;;;;;;;;;25.24;43.75;94528.31;4957776;28;7452;-58
2023/11/17 11:12:16;;;;;;;;;;;;;;;25.27;43.42;94533.53;4971664;28;7250;-59
2023/11/17 11:14:45;;;;;;;;;;;;;;;25.28;43.10;94521.28;4972104;28;7243;-59
2023/11/17 11:17:11;;;;;;;;;;;;;;;25.31;43.52;94530.53;4962773;28;8506;-60
2023/11/17 11:19:41;;;;;;;;;;;;;;;25.33;42.70;94522.53;4980967;28;8510;-59
2023/11/17 11:22:08;;;;;;;;;;;;;;;25.33;42.65;94520.53;4984933;28;9127;-59
2023/11/17 11:25:21;;;;;;;;;;;;;;;25.33;43.66;94520.53;4982235;28;7192;-60
2023/11/17 11:28:07;;;;;;;;;;;;;;;25.29;44.01;94522.03;4938085;28;7464;-59
2023/11/17 11:30:36;;;;;;;;;;;;;;;25.27;43.92;94528.03;4942239;28;7034;-60
2023/11/17 11:33:04;;;;;;;;;;;;;;;25.26;43.95;94537.56;4947937;28;8044;-59
2023/11/17 11:35:31;;;;;;;;;;;;;;;25.31;43.10;94533.28;4942178;28;7225;-59
2023/11/17 11:37:57;;;;;;;;;;;;;;;25.32;43.88;94534.78;4943213;28;6987;-59
2023/11/17 11:40:24;;;;;;;;;;;;;;;25.31;44.15;94536.03;4967765;28;7128;-59
2023/11/17 11:42:53;;;;;;;;;;;;;;;25.31;43.98;94536.81;4969085;28;9030;-60
2023/11/17 11:45:24;;;;;;;;;;;;;;;25.33;43.10;94520.53;4960498;28;7308;-59
2023/11/17 11:48:02;;;;;;;;;;;;;;;25.32;42.79;94529.28;4973684;28;9092;-60
2023/11/17 11:50:37;;;;;;;;;;;;;;;25.31;42.73;94530.53;4956469;28;9143;-60
2023/11/17 11:53:27;;;;;;;;;;;;;;;25.29;43.25;94536.53;4987394;28;7330;-60
2023/11/17 11:56:05;;;;;;;;;;;;;;;25.30;43.17;94537.28;4954535;28;7694;-59
2023/11/17 11:58:32;;;;;;;;;;;;;;;25.33;42.79;94536.28;4967492;28;7066;-61
2023/11/17 12:01:06;;;;;;;;;;;;;;;25.31;43.31;94536.03;4956645;28;7260;-60
2023/11/17 12:03:36;;;;;;;;;;;;;;;25.31;42.73;94538.81;4979286;28;9213;-60
2023/11/17 12:06:03;;;;;;;;;;;;;;;25.32;42.66;94543.78;5038569;28;8364;-60
2023/11/17 12:08:31;;;;;;;;;;;;;;;25.34;42.80;94549.53;5035521;28;9138;-60
2023/11/17 12:11:10;;;;;;;;;;;;;;;25.34;42.47;94549.53;5049411;28;8880;-59
2023/11/17 12:13:37;;;;;;;;;;;;;;;25.36;42.73;94554.53;5032305;28;9087;-59
2023/11/17 12:16:10;;;;;;;;;;;;;;;25.34;42.73;94551.53;5031910;28;6985;-59
2023/11/17 12:18:36;;;;;;;;;;;;;;;25.37;42.66;94550.53;5013069;28;7328;-59
2023/11/17 12:21:16;;;;;;;;;;;;;;;25.36;42.44;94546.28;5013680;28;7076;-60
2023/11/17 12:23:48;;;;;;;;;;;;;;;25.37;42.25;94550.53;5010024;28;9176;-59
2023/11/17 12:26:20;;;;;;;;;;;;;;;25.36;42.77;94551.78;5029131;28;9040;-60
2023/11/17 12:28:47;;;;;;;;;;;;;;;25.36;43.18;94566.31;5032183;28;7216;-59
2023/11/17 12:31:18;;;;;;;;;;;;;;;25.39;43.02;94559.03;5034439;28;7265;-59
2023/11/17 12:33:51;;;;;;;;;;;;;;;25.39;42.25;94556.28;5016766;28;7514;-59
2023/11/17 12:36:19;;;;;;;;;;;;;;;25.37;43.00;94547.78;5029089;28;7155;-60
2023/11/17 12:38:54;;;;;;;;;;;;;;;25.46;42.89;94552.28;5036606;28;7245;-59
2023/11/17 12:41:22;;;;;;;;;;;;;;;25.51;42.93;94535.00;5019320;28;8278;-60
2023/11/17 12:43:56;;;;;;;;;;;;;;;25.49;43.13;94543.75;5043431;28;7201;-59
2023/11/17 12:46:30;;;;;;;;;;;;;;;25.49;42.86;94538.25;5018864;28;7879;-60
2023/11/17 12:49:24;;;;;;;;;;;;;;;25.59;42.12;94545.00;5017924;28;7532;-60
2023/11/17 12:52:10;;;;;;;;;;;;;;;25.61;41.67;94545.22;4961034;28;7384;-59
2023/11/17 12:55:08;;;;;;;;;;;;;;;25.58;41.85;94546.22;4987852;28;7385;-59
2023/11/17 12:57:46;;;;;;;;;;;;;;;25.56;41.77;94548.00;4930681;28;9885;-60
2023/11/17 13:00:40;;;;;;;;;;;;;;;25.51;42.63;94552.28;4921473;28;8101;-60
2023/11/17 13:03:19;;;;;;;;;;;;;;;25.46;42.58;94550.28;4926022;29;7293;-60
2023/11/17 13:06:09;;;;;;;;;;;;;;;25.42;42.97;94561.56;4939015;28;7580;-60
2023/11/17 13:08:40;;;;;;;;;;;;;;;25.44;42.63;94569.31;4913024;29;8197;-60
2023/11/17 13:11:21;;;;;;;;;;;;;;;25.42;42.28;94574.59;4948238;28;7621;-59
2023/11/17 13:14:20;;;;;;;;;;;;;;;25.40;42.94;94566.06;4921795;28;7182;-56
2023/11/17 13:17:10;;;;;;;;;;;;;;;25.40;42.99;94555.03;4942172;28;9511;-56
2023/11/17 13:19:52;;;;;;;;;;;;;;;25.40;42.92;94552.28;4933015;28;7244;-55
2023/11/17 13:26:44;;;;;;;;;;;;;;;25.39;43.02;94575.56;4940193;28;8754;-56
2023/11/17 13:29:13;;;;;;;;;;;;;;;25.42;43.19;94580.81;4921686;28;9266;-56
2023/11/17 13:32:08;;;;;;;;;;;;;;;25.45;42.24;94587.34;4935740;28;7385;-56
2023/11/17 13:34:36;;;;;;;;;;;;;;;25.42;43.00;94567.06;4990812;28;7287;-56
2023/11/17 13:37:19;;;;;;;;;;;;;;;25.46;42.93;94580.59;5013444;28;7165;-55
2023/11/17 13:39:58;;;;;;;;;;;;;;;25.39;42.49;94579.06;5011509;28;8403;-54
2023/11/17 13:42:49;;;;;;;;;;;;;;;25.43;42.76;94589.84;5011310;28;7435;-55
2023/11/17 13:45:27;;;;;;;;;;;;;;;25.39;42.96;94587.34;5022221;28;7419;-55
2023/11/17 13:48:25;;;;;;;;;;;;;;;25.37;42.14;94592.59;5007884;28;7718;-55
2023/11/17 13:51:24;;;;;;;;;;;;;;;25.40;42.37;94590.84;5001598;28;9073;-55
2023/11/17 13:54:11;;;;;;;;;;;;;;;25.37;43.15;94589.09;4943429;28;7137;-55
2023/11/17 13:57:05;;;;;;;;;;;;;;;25.36;42.62;94591.09;4940869;28;6994;-55
2023/11/17 13:59:49;;;;;;;;;;;;;;;25.32;42.83;94589.84;4925785;29;7375;-55
2023/11/17 14:02:44;;;;;;;;;;;;;;;25.32;42.79;94604.38;4940106;28;7238;-55
2023/11/17 14:05:23;;;;;;;;;;;;;;;25.30;42.51;94606.13;4941666;28;7346;-55
2023/11/17 14:08:12;;;;;;;;;;;;;;;25.32;43.13;94607.13;4933072;28;8825;-55
2023/11/17 14:10:41;;;;;;;;;;;;;;;25.31;43.03;94610.38;4956693;28;7317;-55
2023/11/17 14:13:25;;;;;;;;;;;;;;;25.33;43.15;94613.38;4954205;28;7248;-55